Time;durP1;ratioP1;P1;durP2;ratioP2;P2;SDS_P1;SDS_P2;PMS_P1;PMS_P2;Temp;Humidity;BMP_temperature;BMP_pressure;BME280_temperature;BME280_humidity;BME280_pressure;Samples;Min_cycle;Max_cycle;Signal;HPM_P1;HPM_P2
2024/04/10 00:02:15;;;;;;;2.05;1.30;;;;;;;12.98;39.77;93919.88;5414588;26;20075;-69
2024/04/10 00:04:40;;;;;;;2.45;1.40;;;;;;;12.97;39.68;93918.31;5414935;26;20011;-69
2024/04/10 00:07:06;;;;;;;5.72;1.42;;;;;;;13.01;39.31;93919.22;5415629;26;19999;-69
2024/04/10 00:09:31;;;;;;;2.55;1.02;;;;;;;13.02;38.78;93910.13;5414184;26;20442;-68
2024/04/10 00:11:57;;;;;;;3.88;1.30;;;;;;;12.94;39.23;93913.66;5414892;26;19996;-69
2024/04/10 00:14:22;;;;;;;1.85;1.20;;;;;;;12.98;39.19;93906.53;5417243;26;20088;-69
2024/04/10 00:16:49;;;;;;;2.88;1.35;;;;;;;13.02;39.36;93910.91;5417541;26;20511;-69
2024/04/10 00:19:15;;;;;;;1.25;0.98;;;;;;;13.02;39.17;93902.09;5417882;26;20007;-68
2024/04/10 00:21:43;;;;;;;3.05;1.80;;;;;;;12.94;39.39;93906.41;5418508;26;20309;-69
2024/04/10 00:24:09;;;;;;;1.88;1.45;;;;;;;12.90;39.38;93908.19;5418206;26;20447;-69
2024/04/10 00:26:34;;;;;;;4.32;1.30;;;;;;;12.89;39.65;93911.94;5418345;26;19991;-69
2024/04/10 00:29:02;;;;;;;3.50;1.10;;;;;;;12.87;39.55;93901.59;5417795;26;20008;-69
2024/04/10 00:31:27;;;;;;;4.55;1.30;;;;;;;12.85;39.52;93908.38;5417717;26;19992;-68
2024/04/10 00:33:53;;;;;;;2.85;1.00;;;;;;;12.82;39.62;93911.66;5417575;26;19995;-68
2024/04/10 00:36:18;;;;;;;4.38;1.10;;;;;;;12.79;39.64;93907.00;5417866;26;20327;-69
2024/04/10 00:38:44;;;;;;;2.33;1.20;;;;;;;12.74;39.28;93913.31;5417597;26;20014;-69
2024/04/10 00:41:09;;;;;;;3.72;1.08;;;;;;;12.79;39.24;93907.78;5417856;26;20000;-69
2024/04/10 00:43:35;;;;;;;1.05;1.02;;;;;;;12.80;39.27;93912.00;5417601;26;19999;-68
2024/04/10 00:46:14;;;;;;;2.00;1.30;;;;;;;12.77;39.60;93906.53;5417654;26;20335;-68
2024/04/10 00:48:41;;;;;;;1.80;1.35;;;;;;;12.74;39.81;93905.28;5382675;26;20022;-69
2024/04/10 00:51:26;;;;;;;2.28;1.20;;;;;;;12.75;39.72;93906.88;5409015;26;20077;-68
2024/04/10 00:53:54;;;;;;;3.00;1.13;;;;;;;12.80;39.49;93904.00;5416846;26;20448;-69
2024/04/10 00:56:19;;;;;;;2.67;1.05;;;;;;;12.76;40.28;93907.66;5417268;26;20005;-68
2024/04/10 00:58:46;;;;;;;2.58;1.35;;;;;;;12.68;40.44;93906.59;5417508;26;20003;-68
2024/04/10 01:01:13;;;;;;;2.58;1.25;;;;;;;12.84;39.79;93901.47;5417679;26;20007;-69
2024/04/10 01:03:39;;;;;;;3.40;1.20;;;;;;;12.67;40.01;93904.22;5350334;26;20006;-68
2024/04/10 01:06:07;;;;;;;3.78;1.10;;;;;;;12.58;40.17;93896.28;5408663;26;20660;-68
2024/04/10 01:08:36;;;;;;;1.10;1.00;;;;;;;12.58;40.01;93901.63;5417365;26;20002;-69
2024/04/10 01:11:03;;;;;;;2.72;1.27;;;;;;;12.55;40.05;93898.78;5416957;26;20359;-69
2024/04/10 01:13:30;;;;;;;1.38;1.25;;;;;;;12.44;40.09;93895.72;5417015;26;20065;-69
2024/04/10 01:15:56;;;;;;;1.88;1.20;;;;;;;12.22;40.74;93890.66;5417771;26;20018;-69
2024/04/10 01:18:22;;;;;;;3.60;1.52;;;;;;;12.18;40.79;93897.69;5416622;26;20397;-69
2024/04/10 01:20:49;;;;;;;2.28;1.15;;;;;;;12.20;40.67;93895.50;5416597;26;20323;-68
2024/04/10 01:23:17;;;;;;;7.13;1.45;;;;;;;12.12;41.16;93899.00;5417271;26;20439;-68
2024/04/10 01:25:43;;;;;;;1.48;1.10;;;;;;;12.15;41.02;93899.13;5416950;26;19999;-68
2024/04/10 01:28:08;;;;;;;4.78;1.17;;;;;;;12.01;40.86;93895.91;5417951;26;19991;-69
2024/04/10 01:30:34;;;;;;;3.90;1.15;;;;;;;12.08;41.08;93887.44;5416939;26;20545;-68
2024/04/10 01:33:00;;;;;;;1.42;1.30;;;;;;;12.16;40.76;93889.25;5416484;26;20003;-69
2024/04/10 01:35:25;;;;;;;1.83;1.10;;;;;;;12.29;40.63;93890.91;5415881;26;20548;-68
2024/04/10 01:37:50;;;;;;;1.83;1.17;;;;;;;12.24;40.47;93886.53;5416496;26;20010;-69
2024/04/10 01:40:16;;;;;;;1.25;0.90;;;;;;;12.11;41.07;93884.91;5417074;26;20019;-68
2024/04/10 01:42:45;;;;;;;1.45;1.10;;;;;;;12.12;41.47;93888.34;5417058;26;20326;-68
2024/04/10 01:45:11;;;;;;;2.65;1.10;;;;;;;12.10;41.47;93885.19;5416914;26;20014;-68
2024/04/10 01:47:36;;;;;;;4.20;1.10;;;;;;;12.11;41.53;93887.56;5416475;26;20374;-69
2024/04/10 01:50:02;;;;;;;1.25;1.00;;;;;;;11.99;41.53;93877.56;5416801;26;20000;-69
2024/04/10 01:52:27;;;;;;;1.27;1.10;;;;;;;12.04;41.67;93884.59;5416579;26;20003;-68
2024/04/10 01:54:53;;;;;;;3.88;1.13;;;;;;;11.97;41.84;93879.00;5416998;26;20006;-68
2024/04/10 01:57:18;;;;;;;2.88;1.30;;;;;;;11.99;41.69;93880.22;5416115;26;20447;-67
2024/04/10 01:59:44;;;;;;;2.08;1.40;;;;;;;12.02;41.82;93879.59;5415993;26;20072;-68
2024/04/10 02:02:09;;;;;;;2.33;1.33;;;;;;;11.93;41.83;93862.09;5416440;26;20000;-68
2024/04/10 02:04:35;;;;;;;1.20;1.10;;;;;;;12.04;41.65;93877.38;5415977;26;20015;-68
2024/04/10 02:07:01;;;;;;;3.13;1.33;;;;;;;11.97;42.05;93871.00;5416887;26;20003;-68
2024/04/10 02:09:26;;;;;;;1.08;0.98;;;;;;;11.91;42.32;93873.06;5415392;26;20007;-69
2024/04/10 02:11:52;;;;;;;1.48;1.27;;;;;;;11.69;42.60;93880.47;5416115;26;20330;-69
2024/04/10 02:14:17;;;;;;;4.20;1.45;;;;;;;11.70;42.68;93871.38;5416057;26;19999;-68
2024/04/10 02:16:43;;;;;;;1.40;1.10;;;;;;;11.70;42.66;93874.84;5416583;26;20015;-69
2024/04/10 02:19:09;;;;;;;3.10;1.10;;;;;;;11.71;42.70;93875.63;5416782;26;20354;-69
2024/04/10 02:21:35;;;;;;;3.25;1.02;;;;;;;11.66;42.48;93873.13;5415972;26;20005;-69
2024/04/10 02:24:00;;;;;;;4.00;1.30;;;;;;;11.64;42.69;93870.78;5416210;26;20549;-69
2024/04/10 02:26:25;;;;;;;2.28;1.58;;;;;;;11.67;42.88;93872.81;5416297;26;20008;-68
2024/04/10 02:28:51;;;;;;;3.40;1.40;;;;;;;11.76;42.78;93864.78;5415941;26;20060;-68
2024/04/10 02:31:17;;;;;;;1.50;1.30;;;;;;;11.82;42.78;93866.97;5416358;26;20010;-69
2024/04/10 02:33:43;;;;;;;1.30;1.10;;;;;;;11.66;42.94;93863.25;5416777;26;20327;-69
2024/04/10 02:36:09;;;;;;;3.90;1.45;;;;;;;11.52;43.52;93876.00;5414549;26;20077;-68
2024/04/10 02:38:35;;;;;;;3.15;1.55;;;;;;;11.57;43.64;93878.47;5415636;26;20007;-69
2024/04/10 02:41:01;;;;;;;3.50;1.35;;;;;;;11.60;43.16;93877.84;5415828;26;20014;-68
2024/04/10 02:43:27;;;;;;;3.78;1.15;;;;;;;11.55;43.03;93873.47;5415377;26;20017;-68
2024/04/10 02:45:56;;;;;;;2.40;1.05;;;;;;;11.61;42.83;93874.09;5415928;26;20076;-69
2024/04/10 02:48:22;;;;;;;3.28;1.20;;;;;;;11.71;42.92;93884.41;5416089;26;20032;-68
2024/04/10 02:50:48;;;;;;;3.42;1.17;;;;;;;11.83;42.23;93881.84;5415841;26;20000;-69
2024/04/10 02:53:14;;;;;;;2.33;1.65;;;;;;;11.68;42.58;93885.03;5415787;26;20010;-68
2024/04/10 02:55:43;;;;;;;2.38;1.23;;;;;;;11.68;42.95;93882.38;5415969;26;20003;-68
2024/04/10 02:58:10;;;;;;;4.40;1.40;;;;;;;11.59;43.17;93886.91;5416575;26;20003;-69
2024/04/10 03:00:45;;;;;;;2.65;1.40;;;;;;;11.56;43.51;93888.34;5415919;26;20010;-68
2024/04/10 03:03:10;;;;;;;2.47;1.48;;;;;;;11.46;43.76;93890.53;5416425;26;20439;-68
2024/04/10 03:05:36;;;;;;;2.45;1.40;;;;;;;11.61;43.26;93895.38;5416312;26;19999;-68
2024/04/10 03:08:02;;;;;;;4.35;2.10;;;;;;;11.49;42.98;93887.25;5415622;26;20007;-68
2024/04/10 03:10:28;;;;;;;5.95;2.03;;;;;;;11.35;43.70;93887.41;5415917;26;20420;-68
2024/04/10 03:12:53;;;;;;;4.55;1.60;;;;;;;11.27;43.59;93882.09;5416090;26;19992;-69
2024/04/10 03:15:19;;;;;;;3.45;1.45;;;;;;;11.25;43.54;93887.72;5415302;26;19999;-68
2024/04/10 03:17:46;;;;;;;1.55;1.10;;;;;;;11.11;43.98;93882.56;5416175;26;20378;-69
2024/04/10 03:20:12;;;;;;;3.35;1.65;;;;;;;11.13;43.92;93887.59;5415522;26;20082;-68
2024/04/10 03:22:38;;;;;;;3.58;1.20;;;;;;;11.06;44.49;93880.06;5415622;26;20000;-68
2024/04/10 03:25:04;;;;;;;4.22;1.40;;;;;;;10.94;44.67;93874.63;5416258;26;20679;-69
2024/04/10 03:27:30;;;;;;;2.72;1.60;;;;;;;10.93;44.68;93881.03;5415719;26;20063;-69
2024/04/10 03:29:55;;;;;;;1.95;1.30;;;;;;;11.06;44.22;93877.41;5415024;26;20461;-69
2024/04/10 03:32:21;;;;;;;2.28;1.60;;;;;;;10.99;44.65;93877.13;5415897;26;19999;-68
2024/04/10 03:34:47;;;;;;;4.38;1.52;;;;;;;11.02;44.34;93873.81;5414878;26;19999;-68
2024/04/10 03:37:13;;;;;;;2.63;1.25;;;;;;;11.04;44.55;93882.28;5415547;26;20006;-69
2024/04/10 03:39:39;;;;;;;11.18;1.40;;;;;;;11.03;44.31;93883.38;5415331;26;20003;-68
2024/04/10 03:42:04;;;;;;;2.28;1.13;;;;;;;11.06;44.39;93882.75;5415298;26;20068;-68
2024/04/10 03:44:30;;;;;;;3.35;1.40;;;;;;;11.05;44.29;93889.16;5415206;26;20006;-69
2024/04/10 03:46:55;;;;;;;2.75;1.48;;;;;;;11.07;44.01;93889.63;5414356;26;20006;-69
2024/04/10 03:49:20;;;;;;;2.33;1.33;;;;;;;10.97;44.38;93892.59;5414818;26;20064;-69
2024/04/10 03:51:46;;;;;;;4.15;1.80;;;;;;;11.03;44.51;93891.34;5414840;26;20320;-69
2024/04/10 03:54:11;;;;;;;6.57;1.75;;;;;;;10.96;44.63;93896.34;5415426;26;20007;-68
2024/04/10 03:56:37;;;;;;;2.88;1.70;;;;;;;10.87;44.80;93895.56;5415097;26;20339;-68
2024/04/10 03:59:02;;;;;;;6.07;1.80;;;;;;;10.91;44.62;93893.84;5414985;26;19999;-68
2024/04/10 04:01:27;;;;;;;7.18;2.20;;;;;;;10.94;44.75;93887.91;5414742;26;20000;-69
2024/04/10 04:03:53;;;;;;;3.47;1.52;;;;;;;10.96;44.85;93890.25;5415478;26;20008;-69
2024/04/10 04:06:18;;;;;;;3.08;1.67;;;;;;;11.15;44.29;93888.06;5414638;26;19999;-68
2024/04/10 04:08:47;;;;;;;2.63;2.03;;;;;;;11.17;44.17;93889.31;5414097;26;20014;-68
2024/04/10 04:11:14;;;;;;;2.78;1.67;;;;;;;11.10;44.36;93896.97;5414679;26;19999;-69
2024/04/10 04:13:39;;;;;;;4.35;1.90;;;;;;;11.06;44.64;93900.59;5415139;26;19991;-68
2024/04/10 04:16:08;;;;;;;6.78;1.83;;;;;;;10.95;45.21;93900.13;5414775;26;20312;-68
2024/04/10 04:18:34;;;;;;;5.18;1.48;;;;;;;10.98;45.67;93899.50;5414251;26;20014;-69
2024/04/10 04:21:00;;;;;;;5.07;1.67;;;;;;;10.93;45.67;93902.31;5414181;26;20004;-68
2024/04/10 04:23:26;;;;;;;4.82;1.60;;;;;;;11.02;45.51;93900.44;5414300;26;20014;-69
2024/04/10 04:25:51;;;;;;;1.92;1.50;;;;;;;11.29;44.80;93893.22;5413596;26;20014;-68
2024/04/10 04:28:17;;;;;;;4.75;1.65;;;;;;;11.31;44.83;93893.69;5414461;26;20007;-68
2024/04/10 04:30:47;;;;;;;3.75;1.67;;;;;;;11.36;44.29;93901.50;5414337;26;20032;-68
2024/04/10 04:33:12;;;;;;;3.67;1.70;;;;;;;11.50;44.10;93894.13;5414531;26;20000;-68
2024/04/10 04:35:38;;;;;;;4.65;1.90;;;;;;;11.55;44.39;93899.31;5413783;26;20000;-68
2024/04/10 04:38:03;;;;;;;4.60;1.70;;;;;;;11.69;44.31;93904.44;5413314;26;20012;-68
2024/04/10 04:40:32;;;;;;;2.78;1.67;;;;;;;11.72;44.53;93901.16;5411150;26;20568;-69
2024/04/10 04:42:58;;;;;;;3.15;1.63;;;;;;;11.75;45.29;93909.31;5411493;26;19995;-68
2024/04/10 04:45:24;;;;;;;4.03;1.77;;;;;;;11.89;45.33;93911.78;5411284;26;20015;-68
2024/04/10 04:47:50;;;;;;;5.22;2.05;;;;;;;12.02;44.77;93911.59;5410742;26;19995;-69
2024/04/10 04:50:15;;;;;;;7.70;3.25;;;;;;;12.02;44.53;93908.13;5410931;26;20665;-68
2024/04/10 04:52:41;;;;;;;3.95;2.70;;;;;;;12.21;44.37;93911.19;5411102;26;20376;-68
2024/04/10 04:55:07;;;;;;;5.65;3.75;;;;;;;12.37;44.01;93916.78;5411891;26;20424;-69
2024/04/10 04:57:32;;;;;;;7.43;3.40;;;;;;;12.33;44.03;93905.16;5413400;26;20318;-69
2024/04/10 04:59:58;;;;;;;6.07;3.78;;;;;;;12.52;44.03;93915.44;5415626;26;20396;-68
2024/04/10 05:02:24;;;;;;;9.13;3.85;;;;;;;12.57;43.88;93915.25;5417258;26;20006;-67
2024/04/10 05:04:57;;;;;;;9.52;4.18;;;;;;;12.77;43.27;93915.31;5416824;26;20447;-68
2024/04/10 05:07:23;;;;;;;13.18;4.40;;;;;;;12.60;43.01;93923.44;5385824;26;20427;-68
2024/04/10 05:09:51;;;;;;;10.13;4.38;;;;;;;12.91;43.13;93923.06;5417535;26;20010;-68
2024/04/10 05:12:17;;;;;;;16.05;4.75;;;;;;;13.00;42.15;93915.03;5416497;26;19999;-68
2024/04/10 05:14:50;;;;;;;13.68;5.07;;;;;;;12.87;42.98;93919.47;5416893;26;20447;-69
2024/04/10 05:17:16;;;;;;;14.43;4.30;;;;;;;13.12;42.40;93923.09;5416838;26;20450;-68
2024/04/10 05:19:42;;;;;;;20.27;5.22;;;;;;;12.98;43.01;93925.22;5417362;26;20015;-68
2024/04/10 05:22:07;;;;;;;20.85;5.50;;;;;;;12.99;42.58;93921.47;5417332;26;20008;-69
2024/04/10 05:24:33;;;;;;;17.98;4.93;;;;;;;13.18;42.44;93913.78;5416963;26;19999;-69
2024/04/10 05:26:59;;;;;;;16.83;5.13;;;;;;;12.96;42.70;93919.44;5416590;26;20003;-68
2024/04/10 05:29:25;;;;;;;11.38;5.55;;;;;;;13.19;42.48;93920.69;5417164;26;19999;-68
2024/04/10 05:31:50;;;;;;;20.38;5.22;;;;;;;13.36;42.45;93919.75;5417256;26;20335;-69
2024/04/10 05:34:16;;;;;;;18.80;5.88;;;;;;;13.22;42.53;93930.72;5416765;26;20019;-68
2024/04/10 05:36:41;;;;;;;24.50;6.22;;;;;;;13.29;42.61;93930.97;5417331;26;20000;-68
2024/04/10 05:39:07;;;;;;;22.10;6.03;;;;;;;13.44;41.84;93929.59;5416507;26;20337;-69
2024/04/10 05:41:32;;;;;;;19.40;5.43;;;;;;;13.50;42.20;93934.38;5416540;26;20010;-68
2024/04/10 05:43:57;;;;;;;21.35;5.57;;;;;;;13.76;41.53;93934.19;5416449;26;20000;-69
2024/04/10 05:46:26;;;;;;;27.42;6.47;;;;;;;13.99;40.29;93930.00;5416805;26;20015;-68
2024/04/10 05:48:51;;;;;;;16.02;6.50;;;;;;;13.83;40.43;93929.09;5417138;26;20055;-68
2024/04/10 05:51:17;;;;;;;20.83;6.00;;;;;;;13.97;40.98;93934.16;5416172;26;20072;-69
2024/04/10 05:53:42;;;;;;;22.55;6.63;;;;;;;14.01;40.72;93932.38;5415599;26;20081;-68
2024/04/10 05:56:08;;;;;;;14.20;6.25;;;;;;;13.96;41.34;93933.34;5416508;26;19999;-69
2024/04/10 05:58:35;;;;;;;19.50;5.60;;;;;;;13.96;41.02;93937.91;5416296;26;20015;-68
2024/04/10 06:01:10;;;;;;;23.33;7.13;;;;;;;14.15;40.65;93936.28;5417066;26;20015;-69
2024/04/10 06:03:35;;;;;;;17.83;6.00;;;;;;;14.20;39.96;93927.28;5416674;26;20052;-69
2024/04/10 06:06:15;;;;;;;12.60;6.28;;;;;;;14.33;39.81;93936.06;5416871;26;19996;-68
2024/04/10 06:08:41;;;;;;;14.10;5.75;;;;;;;14.35;38.97;93926.63;5415835;26;20008;-69
2024/04/10 06:11:07;;;;;;;19.20;6.25;;;;;;;14.39;39.52;93924.84;5416073;26;19996;-69
2024/04/10 06:13:32;;;;;;;19.00;5.40;;;;;;;14.56;39.22;93930.00;5416182;26;20068;-69
2024/04/10 06:16:02;;;;;;;12.90;5.35;;;;;;;14.55;39.10;93928.44;5416843;26;19996;-68
2024/04/10 06:18:28;;;;;;;18.50;6.05;;;;;;;14.62;39.13;93924.44;5415973;26;20068;-69
2024/04/10 06:20:58;;;;;;;17.13;5.72;;;;;;;14.68;39.01;93929.22;5415563;26;20011;-68
2024/04/10 06:23:24;;;;;;;12.50;5.47;;;;;;;14.42;39.95;93929.50;5415083;26;20003;-68
2024/04/10 06:25:51;;;;;;;14.07;4.97;;;;;;;14.52;39.53;93931.00;5415528;26;20000;-68
2024/04/10 06:28:17;;;;;;;9.30;4.95;;;;;;;14.42;39.19;93934.84;5415667;26;19995;-68
2024/04/10 06:30:43;;;;;;;9.18;5.00;;;;;;;14.84;38.41;93934.66;5415539;26;20067;-69
2024/04/10 06:33:09;;;;;;;12.55;5.60;;;;;;;14.86;37.98;93937.81;5415068;26;19999;-69
2024/04/10 06:35:34;;;;;;;10.63;4.72;;;;;;;14.98;38.24;93940.44;5415543;26;19999;-69
2024/04/10 06:37:59;;;;;;;7.60;4.70;;;;;;;15.04;37.93;93934.53;5415145;26;20006;-68
2024/04/10 06:40:25;;;;;;;13.20;5.47;;;;;;;15.21;37.81;93932.69;5415003;26;20019;-68
2024/04/10 06:42:50;;;;;;;6.50;4.53;;;;;;;15.25;38.01;93929.03;5415453;26;20000;-68
2024/04/10 06:45:16;;;;;;;10.05;5.00;;;;;;;15.13;37.87;93926.38;5415394;26;20007;-68
2024/04/10 06:47:42;;;;;;;22.30;6.22;;;;;;;15.11;37.47;93931.28;5415346;26;20000;-69
2024/04/10 06:50:09;;;;;;;15.18;5.78;;;;;;;15.25;37.79;93928.25;5415401;26;20019;-69
2024/04/10 06:52:35;;;;;;;13.50;5.65;;;;;;;15.34;37.45;93927.00;5414732;26;19996;-68
2024/04/10 06:55:05;;;;;;;17.73;7.32;;;;;;;15.34;37.54;93932.34;5415728;26;20000;-69
2024/04/10 06:57:31;;;;;;;21.38;6.70;;;;;;;15.37;37.47;93926.31;5415754;26;19991;-69
2024/04/10 06:59:58;;;;;;;14.73;6.18;;;;;;;15.56;37.57;93920.34;5415935;26;20005;-68
2024/04/10 07:02:24;;;;;;;29.52;6.95;;;;;;;15.74;38.14;93923.53;5415402;26;20076;-69
2024/04/10 07:04:50;;;;;;;14.82;5.65;;;;;;;15.73;36.79;93927.31;5414743;26;20000;-68
2024/04/10 07:07:15;;;;;;;17.23;6.63;;;;;;;15.81;37.61;93929.84;5414872;26;20454;-68
2024/04/10 07:09:41;;;;;;;15.05;6.78;;;;;;;15.70;36.83;93928.00;5414928;26;20072;-69
2024/04/10 07:12:06;;;;;;;10.27;5.85;;;;;;;15.87;37.15;93928.47;5415572;26;20071;-69
2024/04/10 07:14:34;;;;;;;13.05;5.85;;;;;;;16.02;37.10;93918.13;5415084;26;19995;-68
2024/04/10 07:17:00;;;;;;;19.25;5.88;;;;;;;16.10;36.23;93930.59;5414726;26;20484;-69
2024/04/10 07:19:26;;;;;;;13.45;6.00;;;;;;;15.95;35.91;93929.44;5414973;26;19991;-69
2024/04/10 07:21:52;;;;;;;15.13;5.90;;;;;;;16.05;36.86;93926.25;5414211;26;20002;-69
2024/04/10 07:24:18;;;;;;;12.25;4.35;;;;;;;15.85;37.16;93932.63;5415398;26;20007;-69
2024/04/10 07:26:43;;;;;;;12.02;5.05;;;;;;;15.56;37.19;93930.28;5415058;26;20005;-69
2024/04/10 07:29:09;;;;;;;8.70;3.92;;;;;;;15.73;36.82;93930.00;5414690;26;19992;-69
2024/04/10 07:31:36;;;;;;;16.88;7.30;;;;;;;15.82;37.41;93927.94;5415531;26;20446;-69
2024/04/10 07:34:03;;;;;;;19.30;9.23;;;;;;;16.18;36.38;93925.03;5415680;26;19991;-69
2024/04/10 07:36:31;;;;;;;18.73;6.93;;;;;;;16.39;35.81;93926.72;5415517;26;20007;-68
2024/04/10 07:38:58;;;;;;;13.70;4.20;;;;;;;16.42;35.63;93926.84;5413571;26;19999;-69
2024/04/10 07:41:24;;;;;;;8.52;4.03;;;;;;;16.50;36.80;93925.88;5414844;26;19991;-69
2024/04/10 07:43:50;;;;;;;18.23;4.25;;;;;;;16.38;36.49;93925.19;5414610;26;20423;-69
2024/04/10 07:46:17;;;;;;;14.90;5.15;;;;;;;16.43;36.56;93928.38;5414936;26;19996;-68
2024/04/10 07:48:46;;;;;;;11.18;3.90;;;;;;;16.57;35.65;93933.34;5414160;26;20414;-69
2024/04/10 07:51:15;;;;;;;12.75;3.70;;;;;;;16.36;36.29;93927.44;5413496;26;20076;-68
2024/04/10 07:53:41;;;;;;;12.15;3.58;;;;;;;16.34;35.82;93935.81;5414106;26;19995;-69
2024/04/10 07:56:08;;;;;;;14.23;3.53;;;;;;;16.38;36.34;93935.94;5414425;26;20002;-69
2024/04/10 07:58:35;;;;;;;8.52;3.13;;;;;;;16.21;34.92;93932.41;5413945;26;20008;-69
2024/04/10 08:01:02;;;;;;;7.32;3.50;;;;;;;16.35;35.87;93937.38;5414312;26;20052;-69
2024/04/10 08:03:29;;;;;;;12.30;2.92;;;;;;;16.28;35.39;93932.59;5413415;26;20015;-69
2024/04/10 08:05:58;;;;;;;9.27;3.00;;;;;;;16.28;35.65;93937.19;5413699;26;19995;-69
2024/04/10 08:08:24;;;;;;;6.68;3.00;;;;;;;16.20;35.29;93936.22;5413771;26;20461;-69
2024/04/10 08:10:58;;;;;;;7.00;3.20;;;;;;;16.39;35.91;93930.19;5414223;26;19992;-69
2024/04/10 08:13:23;;;;;;;8.07;2.70;;;;;;;16.17;36.25;93936.13;5414049;26;20014;-68
2024/04/10 08:16:04;;;;;;;9.55;3.78;;;;;;;16.17;35.83;93931.56;5414264;26;20213;-69
2024/04/10 08:18:31;;;;;;;6.63;3.92;;;;;;;16.56;35.20;93932.53;5413679;26;19996;-68
2024/04/10 08:21:01;;;;;;;12.20;3.83;;;;;;;16.81;35.48;93927.75;5413692;26;19995;-69
2024/04/10 08:23:31;;;;;;;11.13;3.35;;;;;;;16.92;34.98;93934.13;5413752;26;20040;-69
2024/04/10 08:25:57;;;;;;;10.75;3.47;;;;;;;16.87;35.39;93929.03;5414229;26;20000;-69
2024/04/10 08:28:25;;;;;;;11.25;3.60;;;;;;;16.99;35.11;93938.91;5413772;26;20012;-68
2024/04/10 08:30:54;;;;;;;6.32;2.75;;;;;;;16.93;33.12;93932.22;5413908;26;20000;-69
2024/04/10 08:33:21;;;;;;;7.75;3.13;;;;;;;17.10;33.32;93935.34;5413706;26;20015;-69
2024/04/10 08:35:59;;;;;;;7.82;3.17;;;;;;;17.07;34.31;93930.63;5416542;26;20010;-68
2024/04/10 08:38:26;;;;;;;4.85;2.65;;;;;;;17.12;32.85;93934.97;5417520;26;19996;-68
2024/04/10 08:40:54;;;;;;;6.15;2.35;;;;;;;17.22;32.82;93936.34;5417518;26;19995;-69
2024/04/10 08:43:20;;;;;;;8.25;2.28;;;;;;;17.06;32.45;93937.13;5417675;26;20014;-68
2024/04/10 08:45:47;;;;;;;8.02;3.00;;;;;;;16.95;33.15;93938.81;5417213;26;20010;-69
2024/04/10 08:48:13;;;;;;;7.63;2.95;;;;;;;17.08;33.11;93942.94;5417873;26;20340;-69
2024/04/10 08:50:41;;;;;;;6.63;3.08;;;;;;;17.14;32.59;93930.06;5416666;26;20348;-68
2024/04/10 08:53:06;;;;;;;9.20;2.58;;;;;;;17.21;32.47;93932.13;5417462;26;19995;-69
2024/04/10 08:55:34;;;;;;;4.78;2.28;;;;;;;17.35;31.70;93938.59;5417266;26;20338;-69
2024/04/10 08:58:00;;;;;;;12.48;3.60;;;;;;;17.14;32.72;93941.59;5385496;26;19992;-68
2024/04/10 09:00:25;;;;;;;5.55;1.80;;;;;;;17.06;31.63;93945.19;5417081;26;19995;-69
2024/04/10 09:02:51;;;;;;;9.68;2.55;;;;;;;17.05;31.98;93937.50;5417172;26;20438;-69
2024/04/10 09:05:31;;;;;;;6.60;1.90;;;;;;;17.13;31.19;93940.03;5417042;26;19999;-69
2024/04/10 09:08:01;;;;;;;6.85;2.55;;;;;;;17.13;31.67;93944.59;5416575;26;19999;-68
2024/04/10 09:10:26;;;;;;;4.70;2.20;;;;;;;17.46;31.09;93942.25;5416491;26;20475;-68
2024/04/10 09:13:09;;;;;;;5.30;2.03;;;;;;;17.84;32.91;93938.03;5416345;26;19996;-68
2024/04/10 09:15:38;;;;;;;8.45;2.67;;;;;;;17.98;31.73;93935.63;5416448;26;20007;-69
2024/04/10 09:18:05;;;;;;;2.45;1.13;;;;;;;17.87;28.25;93940.78;5416617;26;20006;-69
2024/04/10 09:20:31;;;;;;;6.10;1.85;;;;;;;17.79;29.49;93932.94;5416725;26;20500;-68
2024/04/10 09:23:04;;;;;;;4.70;1.38;;;;;;;17.95;27.82;93942.47;5416485;26;20329;-69
2024/04/10 09:25:34;;;;;;;8.43;2.60;;;;;;;18.00;27.44;93939.50;5416203;26;20007;-69
2024/04/10 09:28:06;;;;;;;15.95;9.10;;;;;;;17.98;27.70;93938.31;5416922;26;20019;-69
2024/04/10 09:30:36;;;;;;;8.45;2.45;;;;;;;18.09;27.47;93925.81;5416444;26;20474;-69
2024/04/10 09:33:03;;;;;;;4.93;1.55;;;;;;;18.18;26.37;93925.59;5416399;26;20146;-69
2024/04/10 09:35:30;;;;;;;3.20;1.10;;;;;;;17.87;25.37;93935.38;5415627;26;19995;-69
2024/04/10 09:37:59;;;;;;;9.73;2.25;;;;;;;17.88;24.83;93930.78;5416607;26;20014;-69
2024/04/10 09:40:30;;;;;;;27.00;15.10;;;;;;;17.99;24.96;93932.56;5416536;26;19999;-68
2024/04/10 09:43:04;;;;;;;4.95;1.50;;;;;;;18.03;25.45;93932.66;5416555;26;20020;-69
2024/04/10 09:45:37;;;;;;;5.13;1.20;;;;;;;18.07;27.08;93930.00;5415573;26;20446;-69
2024/04/10 09:48:08;;;;;;;4.05;1.25;;;;;;;18.27;26.70;93923.44;5384748;26;20000;-69
2024/04/10 09:50:38;;;;;;;6.05;1.52;;;;;;;18.41;27.16;93927.16;5416239;26;20015;-68
2024/04/10 09:53:07;;;;;;;2.35;0.90;;;;;;;18.46;22.74;93918.00;5416129;26;19995;-69
2024/04/10 09:55:34;;;;;;;3.75;1.08;;;;;;;18.46;21.53;93910.72;5416725;26;20014;-69
2024/04/10 09:58:29;;;;;;;27.23;12.80;;;;;;;18.70;21.96;93928.44;5416194;26;19999;-69
2024/04/10 10:00:54;;;;;;;23.40;8.57;;;;;;;18.72;21.31;93920.78;5308772;27;20555;-69
2024/04/10 10:03:26;;;;;;;33.05;17.48;;;;;;;18.69;22.50;93918.75;5308198;27;20013;-69
2024/04/10 10:06:06;;;;;;;15.80;3.80;;;;;;;18.66;22.02;93916.78;5308035;27;20016;-69
2024/04/10 10:08:32;;;;;;;3.05;1.02;;;;;;;18.76;22.10;93916.22;5308012;27;20034;-69
2024/04/10 10:10:58;;;;;;;10.93;5.53;;;;;;;18.93;21.60;93914.13;5307819;27;20083;-69
2024/04/10 10:13:31;;;;;;;5.57;0.80;;;;;;;18.82;20.84;93903.97;5307736;27;20050;-68
2024/04/10 10:15:58;;;;;;;6.97;0.90;;;;;;;19.10;20.97;93909.00;5308360;27;20002;-69
2024/04/10 10:18:24;;;;;;;4.50;0.80;;;;;;;18.79;21.42;93898.53;5307222;27;19997;-69
2024/04/10 10:21:08;;;;;;;3.22;0.80;;;;;;;18.93;21.81;93906.81;5307685;27;19997;-69
2024/04/10 10:23:35;;;;;;;2.63;0.70;;;;;;;19.00;21.64;93904.25;5307917;27;20000;-68
2024/04/10 10:26:01;;;;;;;1.35;0.80;;;;;;;18.95;20.66;93901.09;5307930;27;20001;-68
2024/04/10 10:28:29;;;;;;;1.17;0.90;;;;;;;19.16;20.27;93896.00;5308327;27;20049;-68
2024/04/10 10:31:12;;;;;;;4.13;0.98;;;;;;;19.03;21.05;93891.94;5317349;26;20002;-69
2024/04/10 10:33:38;;;;;;;2.58;1.33;;;;;;;19.23;21.61;93902.25;5415761;26;20010;-69
2024/04/10 10:36:04;;;;;;;1.75;0.85;;;;;;;19.02;21.22;93903.88;5415444;26;19996;-69
2024/04/10 10:38:30;;;;;;;4.28;0.88;;;;;;;19.03;21.21;93889.25;5415235;26;20014;-69
2024/04/10 10:40:55;;;;;;;3.00;0.77;;;;;;;19.18;20.57;93893.69;5415459;26;19995;-69
2024/04/10 10:43:20;;;;;;;2.15;0.75;;;;;;;19.30;20.33;93888.09;5384524;26;20364;-69
2024/04/10 10:45:50;;;;;;;1.65;0.75;;;;;;;19.32;21.30;93888.47;5415759;26;20007;-69
2024/04/10 10:48:16;;;;;;;1.35;0.82;;;;;;;19.49;20.17;93882.56;5415449;26;20010;-69
2024/04/10 10:50:41;;;;;;;7.90;0.80;;;;;;;19.46;20.44;93886.00;5415250;26;19999;-68
2024/04/10 10:53:08;;;;;;;4.80;0.95;;;;;;;19.84;25.45;93892.22;5416097;26;20003;-69
2024/04/10 10:55:34;;;;;;;2.17;1.10;;;;;;;19.71;21.37;93878.97;5415809;26;20011;-68
2024/04/10 10:58:03;;;;;;;5.07;1.52;;;;;;;19.67;19.76;93878.16;5414896;26;20702;-69
2024/04/10 11:00:31;;;;;;;5.55;1.20;;;;;;;19.71;18.53;93878.97;5415590;26;20000;-69
2024/04/10 11:03:02;;;;;;;1.73;1.00;;;;;;;19.85;19.78;93883.00;5415182;26;20000;-69
2024/04/10 11:05:27;;;;;;;2.65;0.85;;;;;;;19.84;20.16;93876.03;5415725;26;19992;-69
2024/04/10 11:07:56;;;;;;;4.68;0.80;;;;;;;20.06;19.70;93875.09;5415394;26;20319;-69
2024/04/10 11:10:24;;;;;;;1.80;0.75;;;;;;;20.07;19.54;93884.75;5415726;26;19999;-68
2024/04/10 11:13:07;;;;;;;3.72;0.90;;;;;;;20.09;19.55;93882.47;5415833;26;19996;-69
2024/04/10 11:15:45;;;;;;;6.18;0.85;;;;;;;19.99;19.70;93873.09;5415381;26;19999;-69
2024/04/10 11:18:14;;;;;;;1.98;0.70;;;;;;;19.98;20.10;93879.66;5415213;26;20000;-69
2024/04/10 11:20:40;;;;;;;2.22;0.93;;;;;;;19.81;21.64;93877.53;5415372;26;20003;-69
2024/04/10 11:23:05;;;;;;;3.13;1.17;;;;;;;19.80;21.44;93867.88;5414906;26;20011;-69
2024/04/10 11:25:31;;;;;;;3.67;0.95;;;;;;;19.95;21.34;93876.91;5414861;26;20011;-69
2024/04/10 11:28:00;;;;;;;4.05;1.00;;;;;;;20.17;21.24;93876.00;5415655;26;20360;-69
2024/04/10 11:30:26;;;;;;;2.75;0.90;;;;;;;20.30;20.23;93871.88;5415514;26;20006;-69
2024/04/10 11:32:52;;;;;;;3.70;0.95;;;;;;;20.24;21.20;93872.59;5414992;26;20000;-69